Pryor, Colorado
Current Conditions -  °F | °C
As of 7:54 PM on Saturday 24 Jan 2015 (Local Time) from KTAD Reporting Station
Clear Clear  
Wind Chill: 34°   Ceiling: Unl
Heat Index: 39°   Visibility: 10mi
Dew Point: 23°   Wind: 7mph
Humidity: 53%   Direction: 290°WNW
Pressure: 30.07"   Gusts: NA
Location:  37.6936°N, 104.772°W
Report Text: KTAD 250254Z AUTO 29006KT 10SM CLR 04/M05 A3007 RMK AO2 SLP185 T00391050 50018
Loading
Personal Weather Stations






























Interactive Weather Map New forecast layout! Learn more

10-Day Weather Forecast

Advertisements
Track Severe Weather on mobile